sensor_id;sensor_type;location;lat;lon;timestamp;pressure;altitude;pressure_sealevel;temperature;humidity
13027;BME280;6580;42.680;23.324;2022-09-12T00:01:14;95026.75;;;18.40;100.00
13027;BME280;6580;42.680;23.324;2022-09-12T00:03:42;95030.06;;;18.23;100.00
13027;BME280;6580;42.680;23.324;2022-09-12T00:06:11;95033.59;;;18.04;100.00
13027;BME280;6580;42.680;23.324;2022-09-12T00:08:38;95028.00;;;18.05;100.00
13027;BME280;6580;42.680;23.324;2022-09-12T00:11:09;95041.88;;;18.02;100.00
13027;BME280;6580;42.680;23.324;2022-09-12T00:13:36;95048.94;;;18.23;100.00
13027;BME280;6580;42.680;23.324;2022-09-12T00:16:04;95033.78;;;18.02;100.00
13027;BME280;6580;42.680;23.324;2022-09-12T00:18:31;95045.84;;;17.93;100.00
13027;BME280;6580;42.680;23.324;2022-09-12T00:21:02;95046.25;;;18.16;100.00
13027;BME280;6580;42.680;23.324;2022-09-12T00:23:30;95042.94;;;18.01;100.00
13027;BME280;6580;42.680;23.324;2022-09-12T00:25:58;95040.84;;;18.03;100.00
13027;BME280;6580;42.680;23.324;2022-09-12T00:28:26;95050.59;;;17.91;100.00
13027;BME280;6580;42.680;23.324;2022-09-12T00:30:54;95036.91;;;18.12;100.00
13027;BME280;6580;42.680;23.324;2022-09-12T00:33:21;95039.00;;;17.91;100.00
13027;BME280;6580;42.680;23.324;2022-09-12T00:35:49;95046.47;;;17.89;100.00
13027;BME280;6580;42.680;23.324;2022-09-12T00:38:18;95035.47;;;17.90;100.00
13027;BME280;6580;42.680;23.324;2022-09-12T00:40:46;95029.03;;;18.04;100.00
13027;BME280;6580;42.680;23.324;2022-09-12T00:43:44;95044.78;;;18.07;100.00
13027;BME280;6580;42.680;23.324;2022-09-12T00:46:18;95035.06;;;18.19;100.00
13027;BME280;6580;42.680;23.324;2022-09-12T00:48:53;95046.44;;;18.08;100.00
13027;BME280;6580;42.680;23.324;2022-09-12T00:51:22;95045.41;;;18.09;100.00
13027;BME280;6580;42.680;23.324;2022-09-12T00:53:51;95040.84;;;17.90;100.00
13027;BME280;6580;42.680;23.324;2022-09-12T00:56:21;95045.00;;;17.73;100.00
13027;BME280;6580;42.680;23.324;2022-09-12T00:58:54;95030.91;;;18.04;100.00
13027;BME280;6580;42.680;23.324;2022-09-12T01:01:24;95039.59;;;17.93;100.00
13027;BME280;6580;42.680;23.324;2022-09-12T01:03:51;95023.84;;;17.77;100.00
13027;BME280;6580;42.680;23.324;2022-09-12T01:06:21;95037.13;;;18.04;100.00
13027;BME280;6580;42.680;23.324;2022-09-12T01:08:54;95024.06;;;18.08;100.00
13027;BME280;6580;42.680;23.324;2022-09-12T01:11:23;95024.06;;;17.62;100.00
13027;BME280;6580;42.680;23.324;2022-09-12T01:13:54;95032.78;;;17.71;100.00
13027;BME280;6580;42.680;23.324;2022-09-12T01:16:21;95023.81;;;17.44;100.00
13027;BME280;6580;42.680;23.324;2022-09-12T01:18:54;95036.09;;;17.73;100.00
13027;BME280;6580;42.680;23.324;2022-09-12T01:21:35;95032.78;;;17.77;100.00
13027;BME280;6580;42.680;23.324;2022-09-12T01:24:32;95028.41;;;17.89;100.00
13027;BME280;6580;42.680;23.324;2022-09-12T01:27:35;95025.53;;;18.04;100.00
13027;BME280;6580;42.680;23.324;2022-09-12T01:30:28;95037.53;;;17.82;100.00
13027;BME280;6580;42.680;23.324;2022-09-12T01:33:13;95022.19;;;17.76;100.00
13027;BME280;6580;42.680;23.324;2022-09-12T01:35:45;95019.88;;;17.34;100.00
13027;BME280;6580;42.680;23.324;2022-09-12T01:38:24;95029.22;;;17.51;100.00
13027;BME280;6580;42.680;23.324;2022-09-12T01:41:00;95020.91;;;17.52;100.00
13027;BME280;6580;42.680;23.324;2022-09-12T01:43:34;95018.63;;;17.49;100.00
13027;BME280;6580;42.680;23.324;2022-09-12T01:46:10;95027.56;;;17.63;100.00
13027;BME280;6580;42.680;23.324;2022-09-12T01:48:43;95025.91;;;17.55;100.00
13027;BME280;6580;42.680;23.324;2022-09-12T01:51:17;95014.88;;;17.37;100.00
13027;BME280;6580;42.680;23.324;2022-09-12T01:53:50;95018.84;;;17.61;100.00
13027;BME280;6580;42.680;23.324;2022-09-12T01:56:21;95008.47;;;17.51;100.00
13027;BME280;6580;42.680;23.324;2022-09-12T01:58:53;95018.72;;;17.16;100.00
13027;BME280;6580;42.680;23.324;2022-09-12T02:01:26;95021.19;;;17.11;100.00
13027;BME280;6580;42.680;23.324;2022-09-12T02:03:58;95024.94;;;17.10;100.00
13027;BME280;6580;42.680;23.324;2022-09-12T02:06:28;95022.91;;;17.25;100.00
13027;BME280;6580;42.680;23.324;2022-09-12T02:09:02;95017.84;;;16.96;100.00
13027;BME280;6580;42.680;23.324;2022-09-12T02:11:33;95022.78;;;16.86;100.00
13027;BME280;6580;42.680;23.324;2022-09-12T02:14:05;95021.78;;;17.00;100.00
13027;BME280;6580;42.680;23.324;2022-09-12T02:16:39;95028.69;;;17.22;100.00
13027;BME280;6580;42.680;23.324;2022-09-12T02:19:11;95025.31;;;17.00;100.00
13027;BME280;6580;42.680;23.324;2022-09-12T02:21:46;95032.94;;;16.97;100.00
13027;BME280;6580;42.680;23.324;2022-09-12T02:24:16;95029.84;;;17.00;100.00
13027;BME280;6580;42.680;23.324;2022-09-12T02:26:48;95028.06;;;17.20;100.00
13027;BME280;6580;42.680;23.324;2022-09-12T02:29:18;95010.63;;;17.03;100.00
13027;BME280;6580;42.680;23.324;2022-09-12T02:31:48;95029.50;;;17.16;99.68
13027;BME280;6580;42.680;23.324;2022-09-12T02:34:33;94989.66;;;16.85;100.00
13027;BME280;6580;42.680;23.324;2022-09-12T02:37:11;95026.28;;;17.33;99.21
13027;BME280;6580;42.680;23.324;2022-09-12T02:39:41;95027.91;;;17.28;98.44
13027;BME280;6580;42.680;23.324;2022-09-12T02:42:08;95028.47;;;17.17;98.25
13027;BME280;6580;42.680;23.324;2022-09-12T02:44:36;95032.13;;;16.96;99.65
13027;BME280;6580;42.680;23.324;2022-09-12T02:47:07;95026.34;;;16.99;99.90
13027;BME280;6580;42.680;23.324;2022-09-12T02:49:36;95030.53;;;17.15;98.75
13027;BME280;6580;42.680;23.324;2022-09-12T02:52:03;95023.38;;;17.34;96.65
13027;BME280;6580;42.680;23.324;2022-09-12T02:54:31;95029.97;;;17.26;97.27
13027;BME280;6580;42.680;23.324;2022-09-12T02:57:00;95034.44;;;17.06;99.28
13027;BME280;6580;42.680;23.324;2022-09-12T02:59:27;95033.00;;;17.10;97.42
13027;BME280;6580;42.680;23.324;2022-09-12T03:02:03;95033.44;;;17.13;96.85
13027;BME280;6580;42.680;23.324;2022-09-12T03:04:46;95036.19;;;17.33;94.92
13027;BME280;6580;42.680;23.324;2022-09-12T03:07:25;95047.72;;;17.20;95.90
13027;BME280;6580;42.680;23.324;2022-09-12T03:10:03;95043.53;;;17.05;97.96
13027;BME280;6580;42.680;23.324;2022-09-12T03:12:44;95039.22;;;17.10;98.20
13027;BME280;6580;42.680;23.324;2022-09-12T03:15:24;95047.50;;;17.09;97.03
13027;BME280;6580;42.680;23.324;2022-09-12T03:18:16;95051.16;;;16.95;98.48
13027;BME280;6580;42.680;23.324;2022-09-12T03:20:52;95044.75;;;17.02;97.82
13027;BME280;6580;42.680;23.324;2022-09-12T03:23:29;95048.66;;;16.87;98.19
13027;BME280;6580;42.680;23.324;2022-09-12T03:26:00;95021.06;;;16.72;99.29
13027;BME280;6580;42.680;23.324;2022-09-12T03:28:33;95045.13;;;16.93;99.57
13027;BME280;6580;42.680;23.324;2022-09-12T03:31:11;95044.63;;;16.70;100.00
13027;BME280;6580;42.680;23.324;2022-09-12T03:33:42;95056.19;;;16.64;100.00
13027;BME280;6580;42.680;23.324;2022-09-12T03:36:20;95053.44;;;16.57;100.00
13027;BME280;6580;42.680;23.324;2022-09-12T03:38:47;95061.34;;;16.65;100.00
13027;BME280;6580;42.680;23.324;2022-09-12T03:41:15;95036.34;;;16.71;100.00
13027;BME280;6580;42.680;23.324;2022-09-12T03:43:43;95044.59;;;16.63;100.00
13027;BME280;6580;42.680;23.324;2022-09-12T03:46:11;95053.38;;;16.78;100.00
13027;BME280;6580;42.680;23.324;2022-09-12T03:48:38;95054.19;;;16.79;100.00
13027;BME280;6580;42.680;23.324;2022-09-12T03:51:09;95050.38;;;16.60;100.00
13027;BME280;6580;42.680;23.324;2022-09-12T03:53:38;95048.66;;;16.46;100.00
13027;BME280;6580;42.680;23.324;2022-09-12T03:56:08;95044.31;;;16.52;100.00
13027;BME280;6580;42.680;23.324;2022-09-12T03:58:37;95052.69;;;16.70;100.00
13027;BME280;6580;42.680;23.324;2022-09-12T04:01:07;95060.59;;;16.78;100.00
13027;BME280;6580;42.680;23.324;2022-09-12T04:03:38;95055.34;;;16.63;100.00
13027;BME280;6580;42.680;23.324;2022-09-12T04:06:06;95046.28;;;16.71;100.00
13027;BME280;6580;42.680;23.324;2022-09-12T04:08:35;95057.84;;;16.65;100.00
13027;BME280;6580;42.680;23.324;2022-09-12T04:11:07;95061.06;;;16.88;100.00
13027;BME280;6580;42.680;23.324;2022-09-12T04:13:35;95048.19;;;16.83;99.66
13027;BME280;6580;42.680;23.324;2022-09-12T04:16:03;95055.06;;;16.86;99.58
13027;BME280;6580;42.680;23.324;2022-09-12T04:18:30;95059.84;;;16.97;99.07
13027;BME280;6580;42.680;23.324;2022-09-12T04:20:57;95066.94;;;16.64;99.82
13027;BME280;6580;42.680;23.324;2022-09-12T04:23:25;95054.44;;;16.50;100.00
13027;BME280;6580;42.680;23.324;2022-09-12T04:25:53;95063.22;;;16.65;100.00
13027;BME280;6580;42.680;23.324;2022-09-12T04:28:22;95070.25;;;16.66;100.00
13027;BME280;6580;42.680;23.324;2022-09-12T04:30:49;95071.44;;;16.57;100.00
13027;BME280;6580;42.680;23.324;2022-09-12T04:33:17;95069.91;;;16.75;100.00
13027;BME280;6580;42.680;23.324;2022-09-12T04:35:44;95071.75;;;17.15;99.48
13027;BME280;6580;42.680;23.324;2022-09-12T04:38:12;95073.88;;;16.86;98.85
13027;BME280;6580;42.680;23.324;2022-09-12T04:40:39;95073.50;;;16.89;100.00
13027;BME280;6580;42.680;23.324;2022-09-12T04:43:06;95055.22;;;17.25;98.05
13027;BME280;6580;42.680;23.324;2022-09-12T04:45:35;95058.78;;;17.32;97.48
13027;BME280;6580;42.680;23.324;2022-09-12T04:48:02;95061.94;;;17.61;95.07
13027;BME280;6580;42.680;23.324;2022-09-12T04:50:32;95064.31;;;18.48;89.79
13027;BME280;6580;42.680;23.324;2022-09-12T04:52:59;95064.53;;;19.23;82.67
13027;BME280;6580;42.680;23.324;2022-09-12T04:55:26;95069.88;;;20.10;77.06
13027;BME280;6580;42.680;23.324;2022-09-12T04:57:53;95065.13;;;20.79;71.35
13027;BME280;6580;42.680;23.324;2022-09-12T05:00:20;95068.19;;;20.58;69.29
13027;BME280;6580;42.680;23.324;2022-09-12T05:02:48;95058.81;;;21.03;68.13
13027;BME280;6580;42.680;23.324;2022-09-12T05:05:15;95056.47;;;21.60;64.12
13027;BME280;6580;42.680;23.324;2022-09-12T05:07:42;95060.88;;;21.72;62.38
13027;BME280;6580;42.680;23.324;2022-09-12T05:10:10;95061.97;;;21.83;61.83
13027;BME280;6580;42.680;23.324;2022-09-12T05:12:37;95051.75;;;21.85;60.22
13027;BME280;6580;42.680;23.324;2022-09-12T05:15:06;95058.91;;;22.09;61.04
13027;BME280;6580;42.680;23.324;2022-09-12T05:17:33;95048.84;;;22.50;58.12
13027;BME280;6580;42.680;23.324;2022-09-12T05:20:03;95050.28;;;23.10;55.26
13027;BME280;6580;42.680;23.324;2022-09-12T05:22:30;95056.53;;;23.22;54.75
13027;BME280;6580;42.680;23.324;2022-09-12T05:24:59;95049.28;;;23.78;52.81
13027;BME280;6580;42.680;23.324;2022-09-12T05:27:26;95053.72;;;23.95;51.55
13027;BME280;6580;42.680;23.324;2022-09-12T05:29:57;95048.72;;;24.04;50.91
13027;BME280;6580;42.680;23.324;2022-09-12T05:32:24;95058.41;;;23.72;51.09
13027;BME280;6580;42.680;23.324;2022-09-12T05:34:53;95047.31;;;22.88;53.10
13027;BME280;6580;42.680;23.324;2022-09-12T05:37:21;95070.03;;;22.30;55.93
13027;BME280;6580;42.680;23.324;2022-09-12T05:39:48;95058.81;;;22.27;57.94
13027;BME280;6580;42.680;23.324;2022-09-12T05:42:21;95062.56;;;23.24;54.64
13027;BME280;6580;42.680;23.324;2022-09-12T05:44:49;95051.66;;;24.02;51.12
13027;BME280;6580;42.680;23.324;2022-09-12T05:47:16;95057.09;;;24.30;49.91
13027;BME280;6580;42.680;23.324;2022-09-12T05:49:43;95055.03;;;24.37;49.38
13027;BME280;6580;42.680;23.324;2022-09-12T05:55:29;95053.88;;;24.33;48.81
13027;BME280;6580;42.680;23.324;2022-09-12T05:57:57;95045.72;;;24.33;48.18
13027;BME280;6580;42.680;23.324;2022-09-12T06:00:24;95041.81;;;24.95;47.12
13027;BME280;6580;42.680;23.324;2022-09-12T06:02:53;95030.22;;;24.67;47.34
13027;BME280;6580;42.680;23.324;2022-09-12T06:05:23;95040.34;;;25.20;46.67
13027;BME280;6580;42.680;23.324;2022-09-12T06:07:50;95028.13;;;25.66;45.17
13027;BME280;6580;42.680;23.324;2022-09-12T06:10:17;95035.81;;;25.90;45.66
13027;BME280;6580;42.680;23.324;2022-09-12T06:12:50;95031.94;;;26.12;43.51
13027;BME280;6580;42.680;23.324;2022-09-12T06:15:18;95031.06;;;26.07;43.83
13027;BME280;6580;42.680;23.324;2022-09-12T06:17:47;95030.09;;;25.75;44.37
13027;BME280;6580;42.680;23.324;2022-09-12T06:20:14;95028.09;;;25.23;45.21
13027;BME280;6580;42.680;23.324;2022-09-12T06:22:44;94992.34;;;24.32;47.33
13027;BME280;6580;42.680;23.324;2022-09-12T06:25:12;95047.44;;;24.39;48.11
13027;BME280;6580;42.680;23.324;2022-09-12T06:27:40;95040.88;;;24.68;47.39
13027;BME280;6580;42.680;23.324;2022-09-12T06:30:12;95035.28;;;25.93;45.28
13027;BME280;6580;42.680;23.324;2022-09-12T06:32:41;95050.03;;;26.18;43.99
13027;BME280;6580;42.680;23.324;2022-09-12T06:35:11;95041.97;;;26.33;43.60
13027;BME280;6580;42.680;23.324;2022-09-12T06:37:38;95053.47;;;26.09;44.52
13027;BME280;6580;42.680;23.324;2022-09-12T06:40:07;95055.03;;;26.53;43.06
13027;BME280;6580;42.680;23.324;2022-09-12T06:42:34;95051.28;;;25.25;45.13
13027;BME280;6580;42.680;23.324;2022-09-12T06:45:01;95060.81;;;25.06;46.90
13027;BME280;6580;42.680;23.324;2022-09-12T06:47:30;95047.97;;;25.40;46.77
13027;BME280;6580;42.680;23.324;2022-09-12T06:49:57;95057.66;;;25.95;45.63
13027;BME280;6580;42.680;23.324;2022-09-12T06:52:24;95069.03;;;25.66;45.36
13027;BME280;6580;42.680;23.324;2022-09-12T06:54:51;95068.03;;;25.34;46.82
13027;BME280;6580;42.680;23.324;2022-09-12T06:57:18;95067.06;;;24.25;48.43
13027;BME280;6580;42.680;23.324;2022-09-12T06:59:48;95071.72;;;24.57;49.39
13027;BME280;6580;42.680;23.324;2022-09-12T07:02:16;95068.75;;;24.75;48.05
13027;BME280;6580;42.680;23.324;2022-09-12T07:04:45;95064.25;;;25.35;46.00
13027;BME280;6580;42.680;23.324;2022-09-12T07:07:14;95070.91;;;24.89;47.04
13027;BME280;6580;42.680;23.324;2022-09-12T07:09:41;95065.38;;;24.52;47.10
13027;BME280;6580;42.680;23.324;2022-09-12T07:12:08;95065.88;;;24.65;47.90
13027;BME280;6580;42.680;23.324;2022-09-12T07:14:37;95080.53;;;23.25;51.33
13027;BME280;6580;42.680;23.324;2022-09-12T07:17:04;95074.13;;;22.62;53.74
13027;BME280;6580;42.680;23.324;2022-09-12T07:19:32;95083.38;;;23.07;53.39
13027;BME280;6580;42.680;23.324;2022-09-12T07:22:02;95077.28;;;23.39;52.36
13027;BME280;6580;42.680;23.324;2022-09-12T07:24:29;95074.13;;;24.09;49.31
13027;BME280;6580;42.680;23.324;2022-09-12T07:26:57;95071.56;;;25.13;47.55
13027;BME280;6580;42.680;23.324;2022-09-12T07:29:24;95064.19;;;26.15;43.34
13027;BME280;6580;42.680;23.324;2022-09-12T07:31:52;95073.22;;;26.42;42.26
13027;BME280;6580;42.680;23.324;2022-09-12T07:34:20;95069.38;;;27.01;41.49
13027;BME280;6580;42.680;23.324;2022-09-12T07:36:47;95072.22;;;26.84;39.72
13027;BME280;6580;42.680;23.324;2022-09-12T07:39:17;95058.00;;;27.55;38.97
13027;BME280;6580;42.680;23.324;2022-09-12T07:41:45;95064.69;;;28.65;36.56
13027;BME280;6580;42.680;23.324;2022-09-12T07:44:13;95040.00;;;26.02;40.67
13027;BME280;6580;42.680;23.324;2022-09-12T07:46:40;95063.22;;;26.53;41.46
13027;BME280;6580;42.680;23.324;2022-09-12T07:49:07;95059.59;;;27.05;39.83
13027;BME280;6580;42.680;23.324;2022-09-12T07:51:37;95062.72;;;27.70;38.25
13027;BME280;6580;42.680;23.324;2022-09-12T07:54:07;95062.75;;;28.56;36.46
13027;BME280;6580;42.680;23.324;2022-09-12T07:56:36;95064.19;;;28.88;35.21
13027;BME280;6580;42.680;23.324;2022-09-12T07:59:03;95058.69;;;28.93;34.57
13027;BME280;6580;42.680;23.324;2022-09-12T08:01:31;95058.16;;;28.91;34.41
13027;BME280;6580;42.680;23.324;2022-09-12T08:03:59;95064.84;;;27.58;36.67
13027;BME280;6580;42.680;23.324;2022-09-12T08:06:27;95067.28;;;27.08;37.55
13027;BME280;6580;42.680;23.324;2022-09-12T08:08:58;95056.84;;;28.02;36.92
13027;BME280;6580;42.680;23.324;2022-09-12T08:11:28;95064.56;;;28.15;36.15
13027;BME280;6580;42.680;23.324;2022-09-12T08:14:01;95060.56;;;29.22;34.26
13027;BME280;6580;42.680;23.324;2022-09-12T08:16:32;95066.84;;;27.77;36.06
13027;BME280;6580;42.680;23.324;2022-09-12T08:19:15;95068.69;;;27.62;36.99
13027;BME280;6580;42.680;23.324;2022-09-12T08:21:42;95059.19;;;26.91;38.49
13027;BME280;6580;42.680;23.324;2022-09-12T08:24:11;95056.41;;;28.30;36.66
13027;BME280;6580;42.680;23.324;2022-09-12T08:26:38;95048.81;;;29.02;34.30
13027;BME280;6580;42.680;23.324;2022-09-12T08:29:07;95057.56;;;29.44;34.56
13027;BME280;6580;42.680;23.324;2022-09-12T08:31:34;95054.16;;;29.72;34.02
13027;BME280;6580;42.680;23.324;2022-09-12T08:34:05;95046.56;;;29.34;34.31
13027;BME280;6580;42.680;23.324;2022-09-12T08:36:33;95053.84;;;27.06;38.30
13027;BME280;6580;42.680;23.324;2022-09-12T08:39:01;95059.88;;;27.08;38.68
13027;BME280;6580;42.680;23.324;2022-09-12T08:41:34;95046.94;;;26.99;38.08
13027;BME280;6580;42.680;23.324;2022-09-12T08:44:21;95053.81;;;26.70;38.54
13027;BME280;6580;42.680;23.324;2022-09-12T08:47:15;95059.47;;;24.43;42.45
13027;BME280;6580;42.680;23.324;2022-09-12T08:49:52;95067.50;;;24.33;43.51
13027;BME280;6580;42.680;23.324;2022-09-12T08:52:26;95051.88;;;23.34;45.78
13027;BME280;6580;42.680;23.324;2022-09-12T08:54:55;95060.50;;;24.54;44.29
13027;BME280;6580;42.680;23.324;2022-09-12T08:57:28;95060.06;;;25.11;41.47
13027;BME280;6580;42.680;23.324;2022-09-12T08:59:57;95057.88;;;23.86;44.86
13027;BME280;6580;42.680;23.324;2022-09-12T09:02:44;95042.63;;;23.46;45.73
13027;BME280;6580;42.680;23.324;2022-09-12T09:05:20;95037.88;;;24.20;43.93
13027;BME280;6580;42.680;23.324;2022-09-12T09:08:10;95045.72;;;24.33;43.12
13027;BME280;6580;42.680;23.324;2022-09-12T09:10:48;95047.59;;;24.16;43.02
13027;BME280;6580;42.680;23.324;2022-09-12T09:13:31;95054.09;;;24.60;42.21
13027;BME280;6580;42.680;23.324;2022-09-12T09:16:24;95039.56;;;25.68;40.57
13027;BME280;6580;42.680;23.324;2022-09-12T09:19:00;95042.31;;;25.25;40.82
13027;BME280;6580;42.680;23.324;2022-09-12T09:21:34;95031.09;;;26.38;38.00
13027;BME280;6580;42.680;23.324;2022-09-12T09:24:05;95021.91;;;27.17;37.17
13027;BME280;6580;42.680;23.324;2022-09-12T09:26:41;95032.69;;;26.97;37.18
13027;BME280;6580;42.680;23.324;2022-09-12T09:29:16;95019.53;;;27.82;35.65
13027;BME280;6580;42.680;23.324;2022-09-12T09:31:47;95014.16;;;28.16;34.95
13027;BME280;6580;42.680;23.324;2022-09-12T09:34:18;95005.16;;;26.67;36.62
13027;BME280;6580;42.680;23.324;2022-09-12T09:36:51;95021.78;;;26.34;37.34
13027;BME280;6580;42.680;23.324;2022-09-12T09:39:53;95023.81;;;26.17;38.29
13027;BME280;6580;42.680;23.324;2022-09-12T09:42:31;95007.00;;;26.98;37.11
13027;BME280;6580;42.680;23.324;2022-09-12T09:45:12;95013.19;;;25.52;40.03
13027;BME280;6580;42.680;23.324;2022-09-12T09:47:43;95010.84;;;26.34;39.16
13027;BME280;6580;42.680;23.324;2022-09-12T09:50:13;94990.72;;;26.77;38.37
13027;BME280;6580;42.680;23.324;2022-09-12T09:52:42;95012.72;;;26.02;38.12
13027;BME280;6580;42.680;23.324;2022-09-12T09:55:15;95003.94;;;26.53;39.00
13027;BME280;6580;42.680;23.324;2022-09-12T09:57:45;95006.34;;;26.18;38.11
13027;BME280;6580;42.680;23.324;2022-09-12T10:00:28;95015.19;;;26.93;37.84
13027;BME280;6580;42.680;23.324;2022-09-12T10:03:02;94996.09;;;26.62;37.57
13027;BME280;6580;42.680;23.324;2022-09-12T10:05:33;94999.22;;;26.17;37.91
13027;BME280;6580;42.680;23.324;2022-09-12T10:08:00;95008.25;;;25.70;39.24
13027;BME280;6580;42.680;23.324;2022-09-12T10:10:29;95004.94;;;26.42;37.88
13027;BME280;6580;42.680;23.324;2022-09-12T10:13:06;95000.19;;;25.59;38.65
13027;BME280;6580;42.680;23.324;2022-09-12T10:15:34;94996.72;;;26.74;37.59
13027;BME280;6580;42.680;23.324;2022-09-12T10:18:04;94988.97;;;27.43;36.11
13027;BME280;6580;42.680;23.324;2022-09-12T10:20:37;95000.97;;;26.28;36.79
13027;BME280;6580;42.680;23.324;2022-09-12T10:23:21;94994.47;;;26.34;37.71
13027;BME280;6580;42.680;23.324;2022-09-12T10:25:56;94998.47;;;27.26;37.18
13027;BME280;6580;42.680;23.324;2022-09-12T10:28:32;94984.63;;;28.43;35.01
13027;BME280;6580;42.680;23.324;2022-09-12T10:31:02;94998.84;;;28.25;34.97
13027;BME280;6580;42.680;23.324;2022-09-12T10:33:39;94984.00;;;27.40;36.43
13027;BME280;6580;42.680;23.324;2022-09-12T10:36:07;94990.81;;;27.99;35.19
13027;BME280;6580;42.680;23.324;2022-09-12T10:38:34;94988.19;;;27.01;35.92
13027;BME280;6580;42.680;23.324;2022-09-12T10:41:03;95001.22;;;27.36;35.77
13027;BME280;6580;42.680;23.324;2022-09-12T10:43:36;94993.56;;;27.89;34.77
13027;BME280;6580;42.680;23.324;2022-09-12T10:46:22;94995.22;;;28.00;34.27
13027;BME280;6580;42.680;23.324;2022-09-12T10:49:12;94997.41;;;27.98;32.72
13027;BME280;6580;42.680;23.324;2022-09-12T10:51:41;94999.06;;;27.38;33.80
13027;BME280;6580;42.680;23.324;2022-09-12T10:54:10;95005.84;;;26.53;35.70
13027;BME280;6580;42.680;23.324;2022-09-12T10:56:44;94995.69;;;27.21;34.65
13027;BME280;6580;42.680;23.324;2022-09-12T10:59:24;94979.81;;;27.74;33.95
13027;BME280;6580;42.680;23.324;2022-09-12T11:01:59;94995.00;;;29.16;32.48
13027;BME280;6580;42.680;23.324;2022-09-12T11:04:40;94996.28;;;29.58;31.67
13027;BME280;6580;42.680;23.324;2022-09-12T11:07:24;94996.78;;;27.20;35.41
13027;BME280;6580;42.680;23.324;2022-09-12T11:10:00;94989.53;;;27.50;35.11
13027;BME280;6580;42.680;23.324;2022-09-12T11:12:40;94987.13;;;27.07;35.34
13027;BME280;6580;42.680;23.324;2022-09-12T11:15:25;95002.31;;;27.35;35.31
13027;BME280;6580;42.680;23.324;2022-09-12T11:18:03;94979.03;;;27.93;34.47
13027;BME280;6580;42.680;23.324;2022-09-12T11:20:50;94992.22;;;28.21;34.04
13027;BME280;6580;42.680;23.324;2022-09-12T11:23:34;95001.00;;;28.23;33.78
13027;BME280;6580;42.680;23.324;2022-09-12T11:26:14;95004.34;;;26.14;37.44
13027;BME280;6580;42.680;23.324;2022-09-12T11:28:51;95008.88;;;26.30;36.72
13027;BME280;6580;42.680;23.324;2022-09-12T11:31:41;95001.94;;;26.75;36.82
13027;BME280;6580;42.680;23.324;2022-09-12T11:34:20;94998.66;;;26.73;36.21
13027;BME280;6580;42.680;23.324;2022-09-12T11:37:03;94986.03;;;27.08;35.50
13027;BME280;6580;42.680;23.324;2022-09-12T11:39:38;94985.91;;;27.91;34.36
13027;BME280;6580;42.680;23.324;2022-09-12T11:42:13;94988.16;;;29.18;32.83
13027;BME280;6580;42.680;23.324;2022-09-12T11:44:44;94986.78;;;29.16;32.44
13027;BME280;6580;42.680;23.324;2022-09-12T11:47:13;94996.09;;;29.40;32.42
13027;BME280;6580;42.680;23.324;2022-09-12T11:49:43;94993.69;;;28.64;33.64
13027;BME280;6580;42.680;23.324;2022-09-12T11:52:15;94992.25;;;26.99;36.40
13027;BME280;6580;42.680;23.324;2022-09-12T11:54:45;94993.00;;;27.26;36.20
13027;BME280;6580;42.680;23.324;2022-09-12T11:57:17;94982.06;;;27.26;36.66
13027;BME280;6580;42.680;23.324;2022-09-12T11:59:50;94984.56;;;28.13;35.84
13027;BME280;6580;42.680;23.324;2022-09-12T12:02:25;94990.66;;;28.70;34.74
13027;BME280;6580;42.680;23.324;2022-09-12T12:05:04;94976.81;;;29.60;32.99
13027;BME280;6580;42.680;23.324;2022-09-12T12:07:40;94984.56;;;29.43;32.63
13027;BME280;6580;42.680;23.324;2022-09-12T12:10:26;94991.22;;;28.67;32.99
13027;BME280;6580;42.680;23.324;2022-09-12T12:12:56;94975.31;;;28.64;33.28
13027;BME280;6580;42.680;23.324;2022-09-12T12:15:26;94971.47;;;28.75;32.76
13027;BME280;6580;42.680;23.324;2022-09-12T12:18:04;94990.84;;;28.14;33.40
13027;BME280;6580;42.680;23.324;2022-09-12T12:20:36;94972.44;;;27.80;34.28
13027;BME280;6580;42.680;23.324;2022-09-12T12:23:19;94976.84;;;27.95;34.71
13027;BME280;6580;42.680;23.324;2022-09-12T12:25:52;94949.44;;;27.86;34.47
13027;BME280;6580;42.680;23.324;2022-09-12T12:28:56;94977.22;;;27.48;33.77
13027;BME280;6580;42.680;23.324;2022-09-12T12:31:24;94975.28;;;26.56;34.90
13027;BME280;6580;42.680;23.324;2022-09-12T12:33:53;94983.91;;;26.79;35.81
13027;BME280;6580;42.680;23.324;2022-09-12T12:36:40;94973.69;;;26.33;36.12
13027;BME280;6580;42.680;23.324;2022-09-12T12:49:09;94976.69;;;27.46;35.25
13027;BME280;6580;42.680;23.324;2022-09-12T12:51:54;94964.16;;;26.67;36.92
13027;BME280;6580;42.680;23.324;2022-09-12T12:54:33;94973.50;;;24.80;39.23
13027;BME280;6580;42.680;23.324;2022-09-12T12:57:37;94976.28;;;24.85;40.01
13027;BME280;6580;42.680;23.324;2022-09-12T13:00:23;94978.53;;;25.09;39.30
13027;BME280;6580;42.680;23.324;2022-09-12T13:02:58;94985.59;;;24.51;40.57
13027;BME280;6580;42.680;23.324;2022-09-12T13:05:30;94988.69;;;24.43;41.70
13027;BME280;6580;42.680;23.324;2022-09-12T13:08:07;94996.13;;;23.59;43.37
13027;BME280;6580;42.680;23.324;2022-09-12T13:10:36;94993.00;;;23.78;44.17
13027;BME280;6580;42.680;23.324;2022-09-12T13:13:06;94990.91;;;23.69;43.29
13027;BME280;6580;42.680;23.324;2022-09-12T13:15:47;94997.56;;;23.89;43.51
13027;BME280;6580;42.680;23.324;2022-09-12T13:18:22;94984.06;;;23.94;42.86
13027;BME280;6580;42.680;23.324;2022-09-12T13:20:59;94983.31;;;22.92;44.57
13027;BME280;6580;42.680;23.324;2022-09-12T13:23:31;94974.81;;;23.40;44.50
13027;BME280;6580;42.680;23.324;2022-09-12T13:26:02;94975.06;;;23.38;45.40
13027;BME280;6580;42.680;23.324;2022-09-12T13:28:30;94985.19;;;23.70;43.56
13027;BME280;6580;42.680;23.324;2022-09-12T13:31:00;94972.59;;;23.92;42.44
13027;BME280;6580;42.680;23.324;2022-09-12T13:33:35;94968.28;;;23.52;42.34
13027;BME280;6580;42.680;23.324;2022-09-12T13:39:14;94964.00;;;23.17;42.88
13027;BME280;6580;42.680;23.324;2022-09-12T13:41:58;94972.97;;;23.29;43.30